createdAt,value
2023-04-10T00:02:34.837Z,5.20
2023-04-10T00:05:22.738Z,5.20
2023-04-10T00:08:10.558Z,5.30
2023-04-10T00:10:58.352Z,5.40
2023-04-10T00:13:46.351Z,5.40
2023-04-10T00:16:34.237Z,5.40
2023-04-10T00:19:23.168Z,5.40
2023-04-10T00:22:10.748Z,5.40
2023-04-10T00:24:58.186Z,5.50
2023-04-10T00:27:45.872Z,5.50
2023-04-10T00:30:33.591Z,5.50
2023-04-10T00:33:21.343Z,5.50
2023-04-10T00:36:10.588Z,5.60
2023-04-10T00:38:59.647Z,5.60
2023-04-10T00:41:47.613Z,5.70
2023-04-10T00:44:37.453Z,5.70
2023-04-10T00:47:25.113Z,5.70
2023-04-10T00:50:13.079Z,5.70
2023-04-10T00:53:02.085Z,5.70
2023-04-10T00:55:50.165Z,5.80
2023-04-10T00:58:37.849Z,5.80
2023-04-10T01:01:25.310Z,5.80
2023-04-10T01:04:16.434Z,5.80
2023-04-10T01:07:10.415Z,5.80
2023-04-10T01:10:06.274Z,5.80
2023-04-10T01:13:01.029Z,5.90
2023-04-10T01:15:53.444Z,5.90
2023-04-10T01:18:45.579Z,5.90
2023-04-10T01:21:37.464Z,5.90
2023-04-10T01:24:40.772Z,6.00
2023-04-10T01:27:42.330Z,6.00
2023-04-10T01:30:36.610Z,6.00
2023-04-10T01:33:30.912Z,6.00
2023-04-10T01:36:26.264Z,6.10
2023-04-10T01:39:14.656Z,6.10
2023-04-10T01:42:02.765Z,6.10
2023-04-10T01:45:06.086Z,6.10
2023-04-10T01:47:56.355Z,6.10
2023-04-10T01:50:44.665Z,6.10
2023-04-10T01:53:33.190Z,6.10
2023-04-10T01:56:21.990Z,6.10
2023-04-10T01:59:10.615Z,6.10
2023-04-10T02:01:59.135Z,6.10
2023-04-10T02:04:51.805Z,6.10
2023-04-10T02:07:45.780Z,6.20
2023-04-10T02:10:43.094Z,6.20
2023-04-10T02:13:32.173Z,6.20
2023-04-10T02:16:23.186Z,6.20
2023-04-10T02:19:13.807Z,6.20
2023-04-10T02:22:06.124Z,6.20
2023-04-10T02:24:55.153Z,6.20
2023-04-10T02:27:42.691Z,6.20
2023-04-10T02:30:30.032Z,6.20
2023-04-10T02:33:17.726Z,6.20
2023-04-10T02:36:06.565Z,6.20
2023-04-10T02:38:56.190Z,6.30
2023-04-10T02:41:45.545Z,6.30
2023-04-10T02:44:34.066Z,6.30
2023-04-10T02:47:22.054Z,6.30
2023-04-10T02:50:11.095Z,6.30
2023-04-10T02:53:01.311Z,6.30
2023-04-10T02:55:50.171Z,6.40
2023-04-10T02:58:38.410Z,6.30
2023-04-10T03:01:26.775Z,6.40
2023-04-10T03:04:14.387Z,6.40
2023-04-10T03:07:03.963Z,6.40
2023-04-10T03:09:51.541Z,6.40
2023-04-10T03:12:40.721Z,6.40
2023-04-10T03:15:28.521Z,6.40
2023-04-10T03:18:18.673Z,6.40
2023-04-10T03:21:09.177Z,6.50
2023-04-10T03:23:57.034Z,6.40
2023-04-10T03:26:45.073Z,6.50
2023-04-10T03:29:34.275Z,6.50
2023-04-10T03:32:22.404Z,6.50
2023-04-10T03:35:10.409Z,6.50
2023-04-10T03:37:57.896Z,6.40
2023-04-10T03:40:45.564Z,6.40
2023-04-10T03:43:33.799Z,6.40
2023-04-10T03:46:25.871Z,6.40
2023-04-10T03:49:13.924Z,6.50
2023-04-10T03:52:01.857Z,6.50
2023-04-10T03:54:49.617Z,6.50
2023-04-10T03:57:45.523Z,6.50
2023-04-10T04:00:33.485Z,6.50
2023-04-10T04:03:31.713Z,6.50
2023-04-10T04:06:45.180Z,6.50
2023-04-10T04:09:49.715Z,6.50
2023-04-10T04:12:58.968Z,6.50
2023-04-10T04:15:57.589Z,6.50
2023-04-10T04:19:18.877Z,6.50
2023-04-10T04:22:25.321Z,6.50
2023-04-10T04:25:39.237Z,6.60
2023-04-10T04:28:47.367Z,6.70
2023-04-10T04:31:45.155Z,6.70
2023-04-10T04:34:57.404Z,6.70
2023-04-10T04:37:58.019Z,6.70
2023-04-10T04:41:04.022Z,6.80
2023-04-10T04:44:02.852Z,6.90
2023-04-10T04:47:07.747Z,6.90
2023-04-10T04:50:13.346Z,6.90
2023-04-10T04:53:10.010Z,7.00
2023-04-10T04:56:15.137Z,7.00
2023-04-10T04:59:23.494Z,7.00
2023-04-10T05:02:28.849Z,7.10
2023-04-10T05:05:38.365Z,7.20
2023-04-10T05:08:48.731Z,7.20
2023-04-10T05:12:02.471Z,7.20
2023-04-10T05:15:22.190Z,7.20
2023-04-10T05:18:28.958Z,7.10
2023-04-10T05:21:44.725Z,7.20
2023-04-10T05:25:01.524Z,7.20
2023-04-10T05:27:58.079Z,7.20
2023-04-10T05:30:48.995Z,7.20
2023-04-10T05:33:54.969Z,7.20
2023-04-10T05:37:02.083Z,7.20
2023-04-10T05:40:18.831Z,7.30
2023-04-10T05:43:25.630Z,7.30
2023-04-10T05:46:33.766Z,7.30
2023-04-10T05:49:59.650Z,7.40
2023-04-10T05:53:12.058Z,7.40
2023-04-10T05:56:24.676Z,7.40
2023-04-10T05:59:35.276Z,7.40
2023-04-10T06:02:52.229Z,7.40
2023-04-10T06:05:46.074Z,7.40
2023-04-10T06:08:35.874Z,7.30
2023-04-10T06:11:23.646Z,7.30
2023-04-10T06:14:14.425Z,7.30
2023-04-10T06:17:04.774Z,7.30
2023-04-10T06:19:52.410Z,7.30
2023-04-10T06:22:40.725Z,7.20
2023-04-10T06:25:29.898Z,7.30
2023-04-10T06:28:19.536Z,7.40
2023-04-10T06:31:10.721Z,7.40
2023-04-10T06:34:00.009Z,7.50
2023-04-10T06:36:47.930Z,7.60
2023-04-10T06:39:35.565Z,7.60
2023-04-10T06:42:24.670Z,7.80
2023-04-10T06:45:21.108Z,7.90
2023-04-10T06:48:09.216Z,8.00
2023-04-10T06:50:56.585Z,8.10
2023-04-10T06:53:44.090Z,8.10
2023-04-10T06:56:31.632Z,8.00
2023-04-10T06:59:20.688Z,8.00
2023-04-10T07:02:08.803Z,8.00
2023-04-10T07:04:57.019Z,8.00
2023-04-10T07:07:44.714Z,8.10
2023-04-10T07:10:32.231Z,8.20
2023-04-10T07:13:19.534Z,8.20
2023-04-10T07:16:10.160Z,8.30
2023-04-10T07:18:57.949Z,8.50
2023-04-10T07:21:45.467Z,8.50
2023-04-10T07:24:33.466Z,8.70
2023-04-10T07:27:23.275Z,8.80
2023-04-10T07:30:13.563Z,8.80
2023-04-10T07:33:03.159Z,8.80
2023-04-10T07:35:50.997Z,8.90
2023-04-10T07:38:38.892Z,9.00
2023-04-10T07:41:26.646Z,8.90
2023-04-10T07:44:14.676Z,8.80
2023-04-10T07:47:02.179Z,8.80
2023-04-10T07:49:51.311Z,8.70
2023-04-10T07:52:39.065Z,8.60
2023-04-10T07:55:26.494Z,8.70
2023-04-10T07:58:14.828Z,8.70
2023-04-10T08:01:02.487Z,8.70
2023-04-10T08:03:49.932Z,8.70
2023-04-10T08:06:39.000Z,8.90
2023-04-10T08:09:27.152Z,9.00
2023-04-10T08:12:15.038Z,9.20
2023-04-10T08:15:02.413Z,9.30
2023-04-10T08:17:50.029Z,9.40
2023-04-10T08:20:37.593Z,9.30
2023-04-10T08:23:26.603Z,9.40
2023-04-10T08:26:14.577Z,9.40
2023-04-10T08:29:02.496Z,9.40
2023-04-10T08:31:50.406Z,9.40
2023-04-10T08:34:38.526Z,9.40
2023-04-10T08:37:27.130Z,9.30
2023-04-10T08:40:16.009Z,9.30
2023-04-10T08:43:03.592Z,9.40
2023-04-10T08:45:53.261Z,9.50
2023-04-10T08:48:46.855Z,9.60
2023-04-10T08:51:40.359Z,9.70
2023-04-10T08:54:29.817Z,10.00
2023-04-10T08:57:20.858Z,10.10
2023-04-10T09:00:22.544Z,10.30
2023-04-10T09:03:14.375Z,10.30
2023-04-10T09:06:04.725Z,10.40
2023-04-10T09:08:52.431Z,10.50
2023-04-10T09:12:03.960Z,10.50
2023-04-10T09:14:53.600Z,10.60
2023-04-10T09:17:56.680Z,10.80
2023-04-10T09:20:44.234Z,10.90
2023-04-10T09:23:31.998Z,10.80
2023-04-10T09:26:30.686Z,10.80
2023-04-10T09:29:18.457Z,10.80
2023-04-10T09:32:07.506Z,10.80
2023-04-10T09:34:59.408Z,10.80
2023-04-10T09:37:47.277Z,10.90
2023-04-10T09:40:35.032Z,11.00
2023-04-10T09:43:24.522Z,11.20
2023-04-10T09:46:13.090Z,11.50
2023-04-10T09:49:05.088Z,11.50
2023-04-10T09:51:52.658Z,11.40
2023-04-10T09:54:40.304Z,11.60
2023-04-10T09:57:29.813Z,12.10
2023-04-10T10:00:17.919Z,12.60
2023-04-10T10:03:08.824Z,13.00
2023-04-10T10:05:57.955Z,13.20
2023-04-10T10:08:46.738Z,13.20
2023-04-10T10:11:35.911Z,13.10
2023-04-10T10:14:27.844Z,13.00
2023-04-10T10:17:19.262Z,12.90
2023-04-10T10:20:10.148Z,12.80
2023-04-10T10:23:00.035Z,12.70
2023-04-10T10:25:48.060Z,12.60
2023-04-10T10:28:37.240Z,12.80
2023-04-10T10:31:27.182Z,13.00
2023-04-10T10:34:17.076Z,13.20
2023-04-10T10:37:05.399Z,13.50
2023-04-10T10:40:03.185Z,13.90
2023-04-10T10:42:58.918Z,14.50
2023-04-10T10:45:53.633Z,14.70
2023-04-10T10:48:41.351Z,14.60
2023-04-10T10:51:44.155Z,14.60
2023-04-10T10:54:40.370Z,14.90
2023-04-10T10:57:49.890Z,15.10
2023-04-10T11:01:11.126Z,15.30
2023-04-10T11:04:00.289Z,15.70
2023-04-10T11:06:53.074Z,15.90
2023-04-10T11:09:53.149Z,15.90
2023-04-10T11:13:14.263Z,16.10
2023-04-10T11:16:05.324Z,16.90
2023-04-10T11:19:14.956Z,17.30
2023-04-10T11:22:07.439Z,17.00
2023-04-10T11:25:03.247Z,16.60
2023-04-10T11:27:52.874Z,16.50
2023-04-10T11:30:41.221Z,16.60
2023-04-10T11:33:30.230Z,17.00
2023-04-10T11:36:18.763Z,17.00
2023-04-10T11:39:08.901Z,17.10
2023-04-10T11:41:57.739Z,17.00
2023-04-10T11:44:47.158Z,17.20
2023-04-10T11:47:36.364Z,17.20
2023-04-10T11:50:29.859Z,17.10
2023-04-10T11:53:21.652Z,16.80
2023-04-10T11:56:21.263Z,16.80
2023-04-10T11:59:11.137Z,16.70
2023-04-10T12:02:07.614Z,16.60
2023-04-10T12:04:59.694Z,16.50
2023-04-10T12:07:51.031Z,16.20
2023-04-10T12:10:47.248Z,16.00
2023-04-10T12:13:34.794Z,15.80
2023-04-10T12:16:23.327Z,15.60
2023-04-10T12:19:11.848Z,15.20
2023-04-10T12:22:02.105Z,15.10
2023-04-10T12:24:52.727Z,15.30
2023-04-10T12:27:40.667Z,15.80
2023-04-10T12:30:28.443Z,16.20
2023-04-10T12:33:21.681Z,17.00
2023-04-10T12:36:22.208Z,17.80
2023-04-10T12:39:24.463Z,18.50
2023-04-10T12:42:17.845Z,19.10
2023-04-10T12:45:05.828Z,19.30
2023-04-10T12:47:53.791Z,19.40
2023-04-10T12:50:51.331Z,19.70
2023-04-10T12:53:45.384Z,20.00
2023-04-10T12:56:42.288Z,19.70
2023-04-10T12:59:32.780Z,19.80
2023-04-10T13:02:21.468Z,20.00
2023-04-10T13:05:10.399Z,20.10
2023-04-10T13:07:58.034Z,19.60
2023-04-10T13:10:45.925Z,19.40
2023-04-10T13:13:33.900Z,19.70
2023-04-10T13:16:22.840Z,20.10
2023-04-10T13:19:10.462Z,20.40
2023-04-10T13:21:59.829Z,20.70
2023-04-10T13:24:47.760Z,20.60
2023-04-10T13:27:35.591Z,20.20
2023-04-10T13:30:23.026Z,19.70
2023-04-10T13:33:11.923Z,19.40
2023-04-10T13:35:59.522Z,19.20
2023-04-10T13:38:47.285Z,19.30
2023-04-10T13:41:34.763Z,19.50
2023-04-10T13:44:22.254Z,19.30
2023-04-10T13:47:09.979Z,18.90
2023-04-10T13:49:59.220Z,18.70
2023-04-10T13:52:48.454Z,18.60
2023-04-10T13:55:37.676Z,18.80
2023-04-10T13:58:26.677Z,19.20
2023-04-10T14:01:14.557Z,19.50
2023-04-10T14:04:02.087Z,19.70
2023-04-10T14:06:53.161Z,19.80
2023-04-10T14:09:40.953Z,19.60
2023-04-10T14:12:29.099Z,19.50
2023-04-10T14:15:16.737Z,19.50
2023-04-10T14:18:04.353Z,19.50
2023-04-10T14:20:51.921Z,19.50
2023-04-10T14:23:42.554Z,19.80
2023-04-10T14:26:30.141Z,20.00
2023-04-10T14:29:20.199Z,19.60
2023-04-10T14:32:10.416Z,19.70
2023-04-10T14:34:58.215Z,19.80
2023-04-10T14:37:45.719Z,20.20
2023-04-10T14:40:34.967Z,20.80
2023-04-10T14:43:22.419Z,21.20
2023-04-10T14:46:09.892Z,21.30
2023-04-10T14:48:57.441Z,21.40
2023-04-10T14:51:45.960Z,21.30
2023-04-10T14:54:33.703Z,21.10
2023-04-10T14:57:22.639Z,21.10
2023-04-10T15:00:11.502Z,20.70
2023-04-10T15:02:59.422Z,20.40
2023-04-10T15:05:46.976Z,20.00
2023-04-10T15:08:34.472Z,19.70
2023-04-10T15:11:22.015Z,19.30
2023-04-10T15:14:12.276Z,19.00
2023-04-10T15:16:59.943Z,18.80
2023-04-10T15:19:47.602Z,18.60
2023-04-10T15:22:35.743Z,18.80
2023-04-10T15:25:23.562Z,18.90
2023-04-10T15:28:11.137Z,18.80
2023-04-10T15:30:59.876Z,18.50
2023-04-10T15:33:47.646Z,18.60
2023-04-10T15:36:35.041Z,19.00
2023-04-10T15:39:22.773Z,19.30
2023-04-10T15:42:10.191Z,19.50
2023-04-10T15:44:57.668Z,19.70
2023-04-10T15:47:49.302Z,20.00
2023-04-10T15:50:38.747Z,20.20
2023-04-10T15:53:26.121Z,20.30
2023-04-10T15:56:16.045Z,20.30
2023-04-10T15:59:03.443Z,20.20
2023-04-10T16:01:51.596Z,20.20
2023-04-10T16:04:40.742Z,20.10
2023-04-10T16:07:28.557Z,19.90
2023-04-10T16:10:16.207Z,19.40
2023-04-10T16:13:06.657Z,18.50
2023-04-10T16:15:54.538Z,17.70
2023-04-10T16:18:44.475Z,17.00
2023-04-10T16:21:33.442Z,16.40
2023-04-10T16:24:21.114Z,16.00
2023-04-10T16:27:09.351Z,15.60
2023-04-10T16:29:56.767Z,15.30
2023-04-10T16:32:44.252Z,15.10
2023-04-10T16:35:31.672Z,14.90
2023-04-10T16:38:20.570Z,14.70
2023-04-10T16:41:10.005Z,14.60
2023-04-10T16:43:57.654Z,14.40
2023-04-10T16:46:45.066Z,14.30
2023-04-10T16:49:32.803Z,14.20
2023-04-10T16:52:20.350Z,14.00
2023-04-10T16:55:10.079Z,13.90
2023-04-10T16:57:57.465Z,13.80
2023-04-10T17:00:45.091Z,13.70
2023-04-10T17:03:34.535Z,13.50
2023-04-10T17:06:22.325Z,13.40
2023-04-10T17:09:09.995Z,13.30
2023-04-10T17:11:59.053Z,13.10
2023-04-10T17:14:46.545Z,13.00
2023-04-10T17:17:34.362Z,12.80
2023-04-10T17:20:21.962Z,12.70
2023-04-10T17:23:09.721Z,12.50
2023-04-10T17:25:57.237Z,12.20
2023-04-10T17:28:46.610Z,12.00
2023-04-10T17:31:34.590Z,11.80
2023-04-10T17:34:22.853Z,11.60
2023-04-10T17:37:10.365Z,11.40
2023-04-10T17:39:57.865Z,11.20
2023-04-10T17:42:45.472Z,11.00
2023-04-10T17:45:37.657Z,10.80
2023-04-10T17:48:25.106Z,10.50
2023-04-10T17:51:12.948Z,10.30
2023-04-10T17:54:00.976Z,10.10
2023-04-10T17:56:48.729Z,10.00
2023-04-10T17:59:36.367Z,9.80
2023-04-10T18:02:25.435Z,9.60
2023-04-10T18:05:13.333Z,9.50
2023-04-10T18:08:00.788Z,9.40
2023-04-10T18:10:48.671Z,9.30
2023-04-10T18:13:36.087Z,9.20
2023-04-10T18:16:23.595Z,9.00
2023-04-10T18:19:12.415Z,8.90
2023-04-10T18:22:00.338Z,8.80
2023-04-10T18:24:48.160Z,8.60
2023-04-10T18:27:36.654Z,8.50
2023-04-10T18:30:24.493Z,8.40
2023-04-10T18:33:11.995Z,8.30
2023-04-10T18:36:01.285Z,8.20
2023-04-10T18:38:49.102Z,8.00
2023-04-10T18:41:38.357Z,7.90
2023-04-10T18:44:26.202Z,7.80
2023-04-10T18:47:15.648Z,7.70
2023-04-10T18:50:03.346Z,7.60
2023-04-10T18:52:52.516Z,7.60
2023-04-10T18:55:39.820Z,7.50
2023-04-10T18:58:27.352Z,7.50
2023-04-10T19:01:14.839Z,7.40
2023-04-10T19:04:02.661Z,7.30
2023-04-10T19:06:50.454Z,7.30
2023-04-10T19:09:39.395Z,7.20
2023-04-10T19:12:26.731Z,7.10
2023-04-10T19:15:14.985Z,7.00
2023-04-10T19:18:02.495Z,6.90
2023-04-10T19:20:53.187Z,6.90
2023-04-10T19:23:41.651Z,6.80
2023-04-10T19:26:30.502Z,6.80
2023-04-10T19:29:18.293Z,6.70
2023-04-10T19:32:06.291Z,6.60
2023-04-10T19:34:54.136Z,6.60
2023-04-10T19:37:42.177Z,6.50
2023-04-10T19:40:30.796Z,6.40
2023-04-10T19:43:19.765Z,6.30
2023-04-10T19:46:08.057Z,6.30
2023-04-10T19:48:55.798Z,6.20
2023-04-10T19:51:43.716Z,6.20
2023-04-10T19:54:31.190Z,6.10
2023-04-10T19:57:18.613Z,6.00
2023-04-10T20:00:10.202Z,6.00
2023-04-10T20:03:00.974Z,5.90
2023-04-10T20:05:49.781Z,5.80
2023-04-10T20:08:37.800Z,5.80
2023-04-10T20:11:30.494Z,5.70
2023-04-10T20:14:18.201Z,5.70
2023-04-10T20:17:07.759Z,5.60
2023-04-10T20:19:55.298Z,5.50
2023-04-10T20:22:43.173Z,5.50
2023-04-10T20:25:30.575Z,5.40
2023-04-10T20:28:18.213Z,5.40
2023-04-10T20:31:06.177Z,5.30
2023-04-10T20:33:55.281Z,5.30
2023-04-10T20:36:42.716Z,5.20
2023-04-10T20:39:30.173Z,5.20
2023-04-10T20:42:18.207Z,5.10
2023-04-10T20:45:06.200Z,5.10
2023-04-10T20:47:53.963Z,5.00
2023-04-10T20:50:46.487Z,5.00
2023-04-10T20:53:34.966Z,5.00
2023-04-10T20:56:32.889Z,5.00
2023-04-10T20:59:28.397Z,4.90
2023-04-10T21:02:18.355Z,4.90
2023-04-10T21:05:06.412Z,4.80
2023-04-10T21:07:55.254Z,4.80
2023-04-10T21:10:44.986Z,4.80
2023-04-10T21:13:32.568Z,4.80
2023-04-10T21:16:20.229Z,4.80
2023-04-10T21:19:07.677Z,4.80
2023-04-10T21:21:56.633Z,4.80
2023-04-10T21:24:45.992Z,4.90
2023-04-10T21:27:33.764Z,4.90
2023-04-10T21:30:22.029Z,4.90
2023-04-10T21:33:09.743Z,4.90
2023-04-10T21:35:57.286Z,4.90
2023-04-10T21:38:45.393Z,4.90
2023-04-10T21:41:34.281Z,4.90
2023-04-10T21:44:21.586Z,5.00
2023-04-10T21:47:09.282Z,5.00
2023-04-10T21:49:56.793Z,5.00
2023-04-10T21:52:44.266Z,5.00
2023-04-10T21:55:31.739Z,4.90
2023-04-10T21:58:20.854Z,4.80
2023-04-10T22:01:09.181Z,4.70
2023-04-10T22:03:57.735Z,4.60
2023-04-10T22:06:45.377Z,4.50
2023-04-10T22:09:32.898Z,4.50
2023-04-10T22:12:20.575Z,4.40
2023-04-10T22:15:10.615Z,4.40
2023-04-10T22:17:58.362Z,4.40
2023-04-10T22:20:45.942Z,4.40
2023-04-10T22:23:33.565Z,4.30
2023-04-10T22:26:21.347Z,4.30
2023-04-10T22:29:08.778Z,4.40
2023-04-10T22:31:58.396Z,4.40
2023-04-10T22:34:45.915Z,4.50
2023-04-10T22:37:33.447Z,4.50
2023-04-10T22:40:20.913Z,4.60
2023-04-10T22:43:08.680Z,4.70
2023-04-10T22:45:56.046Z,4.70
2023-04-10T22:48:51.521Z,4.80
2023-04-10T22:51:39.373Z,4.80
2023-04-10T22:54:26.674Z,4.80
2023-04-10T22:57:14.013Z,4.80
2023-04-10T23:00:01.683Z,4.80
2023-04-10T23:02:49.300Z,4.80
2023-04-10T23:05:38.424Z,4.80
2023-04-10T23:08:26.235Z,4.70
2023-04-10T23:11:13.991Z,4.70
2023-04-10T23:14:01.740Z,4.60
2023-04-10T23:16:49.608Z,4.60
2023-04-10T23:19:37.102Z,4.50
2023-04-10T23:22:26.234Z,4.50
2023-04-10T23:25:15.346Z,4.60
2023-04-10T23:28:03.632Z,4.60
2023-04-10T23:30:50.955Z,4.70
2023-04-10T23:33:38.864Z,4.70
2023-04-10T23:36:27.240Z,4.70
2023-04-10T23:39:16.371Z,4.70
2023-04-10T23:42:04.241Z,4.70
2023-04-10T23:44:51.880Z,4.70
2023-04-10T23:47:39.453Z,4.70
2023-04-10T23:50:27.564Z,4.70
2023-04-10T23:53:15.194Z,4.70
2023-04-10T23:56:04.322Z,4.70
2023-04-10T23:58:52.899Z,4.70
